createdAt,value
2019-04-16T00:02:12.084Z,11.60
2019-04-16T00:04:56.736Z,11.30
2019-04-16T00:07:43.098Z,12.10
2019-04-16T00:10:19.997Z,11.27
2019-04-16T00:13:07.484Z,12.27
2019-04-16T00:15:41.037Z,11.70
2019-04-16T00:18:08.081Z,11.03
2019-04-16T00:20:39.144Z,11.17
2019-04-16T00:23:10.189Z,11.50
2019-04-16T00:25:39.654Z,11.90
2019-04-16T00:28:09.158Z,10.47
2019-04-16T00:30:38.645Z,11.10
2019-04-16T00:33:10.708Z,12.40
2019-04-16T00:35:39.331Z,10.40
2019-04-16T00:38:08.796Z,11.60
2019-04-16T00:40:38.263Z,11.73
2019-04-16T00:43:07.892Z,12.77
2019-04-16T00:45:37.324Z,11.83
2019-04-16T00:48:06.879Z,11.37
2019-04-16T00:50:36.367Z,12.03
2019-04-16T00:53:08.346Z,12.37
2019-04-16T00:55:37.043Z,11.50
2019-04-16T00:58:06.555Z,11.30
2019-04-16T01:00:36.016Z,12.00
2019-04-16T01:03:05.492Z,10.40
2019-04-16T01:05:35.253Z,11.70
2019-04-16T01:08:05.547Z,10.77
2019-04-16T01:10:35.010Z,11.87
2019-04-16T01:13:04.547Z,12.30
2019-04-16T01:15:34.101Z,11.10
2019-04-16T01:18:04.572Z,10.17
2019-04-16T01:20:34.841Z,11.90
2019-04-16T01:23:04.291Z,12.30
2019-04-16T01:25:33.753Z,11.80
2019-04-16T01:28:13.656Z,12.00
2019-04-16T01:30:56.675Z,11.33
2019-04-16T01:33:27.880Z,12.20
2019-04-16T01:35:58.919Z,12.77
2019-04-16T01:38:36.026Z,11.60
2019-04-16T01:41:07.075Z,11.30
2019-04-16T01:43:36.552Z,12.50
2019-04-16T01:46:06.185Z,11.00
2019-04-16T01:48:38.652Z,11.63
2019-04-16T01:51:06.896Z,12.00
2019-04-16T01:53:36.399Z,11.80
2019-04-16T01:56:05.861Z,11.63
2019-04-16T01:58:35.760Z,11.30
2019-04-16T02:01:08.055Z,11.77
2019-04-16T02:03:36.734Z,11.47
2019-04-16T02:06:06.157Z,11.53
2019-04-16T02:08:35.627Z,11.63
2019-04-16T02:11:09.728Z,11.73
2019-04-16T02:13:36.294Z,11.90
2019-04-16T02:16:05.844Z,11.30
2019-04-16T02:18:35.303Z,12.27
2019-04-16T02:21:09.625Z,11.67
2019-04-16T02:23:36.002Z,10.50
2019-04-16T02:26:05.471Z,10.60
2019-04-16T02:28:34.958Z,10.97
2019-04-16T02:31:04.641Z,11.63
2019-04-16T02:33:34.266Z,11.50
2019-04-16T02:36:03.773Z,11.40
2019-04-16T02:38:33.280Z,11.50
2019-04-16T02:41:02.738Z,12.33
2019-04-16T02:43:39.663Z,12.13
2019-04-16T02:46:03.420Z,11.90
2019-04-16T02:48:32.885Z,11.23
2019-04-16T02:51:07.260Z,11.77
2019-04-16T02:53:36.700Z,10.77
2019-04-16T02:56:17.057Z,11.97
2019-04-16T02:58:58.179Z,11.30
2019-04-16T03:01:29.544Z,12.37
2019-04-16T03:04:00.575Z,11.53
2019-04-16T03:06:31.880Z,11.70
2019-04-16T03:09:01.272Z,10.93
2019-04-16T03:11:30.955Z,11.50
2019-04-16T03:14:00.417Z,10.67
2019-04-16T03:16:40.658Z,11.73
2019-04-16T03:19:11.794Z,12.30
2019-04-16T03:21:41.251Z,11.47
2019-04-16T03:24:10.911Z,11.07
2019-04-16T03:26:40.561Z,12.37
2019-04-16T03:29:10.105Z,11.63
2019-04-16T03:31:39.702Z,11.77
2019-04-16T03:34:09.181Z,12.23
2019-04-16T03:36:38.639Z,10.93
2019-04-16T03:39:11.980Z,11.13
2019-04-16T03:41:39.412Z,12.50
2019-04-16T03:44:08.878Z,11.40
2019-04-16T03:46:40.115Z,11.80
2019-04-16T03:49:09.592Z,11.83
2019-04-16T03:51:39.460Z,12.77
2019-04-16T03:54:08.945Z,10.93
2019-04-16T03:56:38.404Z,12.60
2019-04-16T03:59:11.817Z,11.60
2019-04-16T04:01:39.132Z,11.80
2019-04-16T04:04:08.833Z,11.73
2019-04-16T04:06:39.400Z,12.13
2019-04-16T04:09:09.803Z,11.13
2019-04-16T04:11:41.155Z,11.07
2019-04-16T04:14:10.543Z,11.33
2019-04-16T04:16:40.444Z,11.47
2019-04-16T04:19:14.018Z,11.83
2019-04-16T04:21:41.121Z,11.47
2019-04-16T04:24:10.586Z,10.30
2019-04-16T04:26:42.000Z,11.07
2019-04-16T04:29:11.297Z,11.90
2019-04-16T04:31:40.760Z,10.17
2019-04-16T04:34:11.040Z,10.40
2019-04-16T04:36:41.439Z,10.40
2019-04-16T04:39:14.950Z,11.93
2019-04-16T04:41:42.154Z,10.87
2019-04-16T04:44:12.014Z,12.20
2019-04-16T04:46:43.208Z,10.80
2019-04-16T04:49:12.870Z,10.50
2019-04-16T04:51:43.510Z,11.50
2019-04-16T04:54:13.351Z,11.70
2019-04-16T04:56:42.806Z,10.70
2019-04-16T04:59:12.301Z,11.80
2019-04-16T05:01:42.602Z,11.43
2019-04-16T05:04:20.386Z,10.77
2019-04-16T05:06:49.634Z,11.77
2019-04-16T05:09:19.152Z,12.57
2019-04-16T05:11:49.600Z,10.70
2019-04-16T05:14:19.380Z,13.30
2019-04-16T05:16:48.839Z,11.40
2019-04-16T05:19:18.314Z,12.20
2019-04-16T05:21:50.081Z,12.27
2019-04-16T05:24:18.994Z,11.97
2019-04-16T05:26:48.448Z,10.87
2019-04-16T05:29:18.661Z,11.10
2019-04-16T05:31:48.288Z,11.10
2019-04-16T05:34:18.410Z,11.57
2019-04-16T05:36:48.256Z,11.23
2019-04-16T05:39:17.776Z,12.47
2019-04-16T05:41:47.259Z,10.90
2019-04-16T05:44:16.754Z,11.83
2019-04-16T05:46:46.846Z,9.77
2019-04-16T05:49:16.611Z,10.90
2019-04-16T05:51:45.990Z,10.87
2019-04-16T05:54:32.305Z,10.67
2019-04-16T05:57:25.642Z,10.80
2019-04-16T05:59:53.096Z,13.13
2019-04-16T06:02:24.221Z,12.33
2019-04-16T06:04:55.840Z,10.70
2019-04-16T06:07:24.951Z,12.00
2019-04-16T06:09:54.379Z,9.80
2019-04-16T06:12:25.451Z,11.50
2019-04-16T06:14:56.584Z,10.27
2019-04-16T06:17:32.131Z,10.80
2019-04-16T06:20:09.104Z,10.13
2019-04-16T06:22:40.169Z,11.40
2019-04-16T06:25:27.589Z,11.17
2019-04-16T06:28:14.927Z,10.30
2019-04-16T06:30:49.014Z,11.33
2019-04-16T06:33:20.046Z,12.40
2019-04-16T06:35:54.247Z,11.17
2019-04-16T06:38:25.288Z,11.83
2019-04-16T06:41:03.348Z,10.70
2019-04-16T06:43:47.994Z,10.63
2019-04-16T06:46:21.815Z,11.90
2019-04-16T06:48:52.862Z,13.40
2019-04-16T06:51:44.542Z,12.60
2019-04-16T06:54:32.769Z,12.90
2019-04-16T06:57:19.167Z,11.10
2019-04-16T06:59:52.712Z,11.73
2019-04-16T07:02:43.123Z,11.30
2019-04-16T07:05:17.332Z,13.03
2019-04-16T07:08:04.497Z,12.30
2019-04-16T07:10:44.640Z,12.10
2019-04-16T07:13:11.171Z,11.87
2019-04-16T07:15:41.018Z,12.13
2019-04-16T07:18:10.504Z,13.30
2019-04-16T07:20:42.248Z,11.53
2019-04-16T07:23:11.160Z,12.60
2019-04-16T07:25:43.315Z,11.63
2019-04-16T07:28:16.380Z,13.47
2019-04-16T07:30:47.588Z,13.97
2019-04-16T07:33:34.388Z,11.97
2019-04-16T07:36:07.962Z,12.70
2019-04-16T07:38:45.059Z,12.80
2019-04-16T07:41:19.145Z,13.60
2019-04-16T07:44:10.228Z,13.67
2019-04-16T07:46:38.010Z,14.30
2019-04-16T07:49:26.547Z,13.60
2019-04-16T07:52:07.804Z,14.87
2019-04-16T07:54:45.495Z,15.00
2019-04-16T07:57:15.008Z,15.77
2019-04-16T07:59:44.472Z,15.83
2019-04-16T08:02:13.903Z,14.43
2019-04-16T08:04:43.375Z,15.03
2019-04-16T08:07:12.847Z,14.50
2019-04-16T08:09:42.261Z,14.57
2019-04-16T08:12:28.987Z,15.60
2019-04-16T08:14:42.941Z,14.87
2019-04-16T08:17:12.423Z,15.10
2019-04-16T08:19:44.784Z,15.57
2019-04-16T08:22:15.938Z,15.40
2019-04-16T08:24:48.963Z,15.10
2019-04-16T08:27:19.483Z,15.10
2019-04-16T08:29:49.196Z,15.93
2019-04-16T08:32:18.763Z,15.33
2019-04-16T08:34:48.239Z,15.30
2019-04-16T08:37:17.677Z,14.87
2019-04-16T08:39:47.173Z,15.80
2019-04-16T08:42:16.649Z,16.13
2019-04-16T08:44:46.122Z,15.10
2019-04-16T08:47:15.627Z,15.20
2019-04-16T08:49:45.091Z,16.47
2019-04-16T08:52:14.557Z,15.40
2019-04-16T08:54:44.058Z,16.30
2019-04-16T08:57:13.530Z,15.80
2019-04-16T08:59:43.341Z,16.67
2019-04-16T09:02:13.092Z,15.83
2019-04-16T09:04:42.567Z,15.20
2019-04-16T09:07:19.599Z,16.00
2019-04-16T09:09:57.046Z,15.90
2019-04-16T09:12:23.745Z,15.00
2019-04-16T09:14:55.971Z,15.90
2019-04-16T09:17:26.073Z,16.03
2019-04-16T09:19:57.137Z,16.07
2019-04-16T09:22:26.607Z,16.23
2019-04-16T09:24:57.730Z,15.53
2019-04-16T09:27:31.062Z,15.43
2019-04-16T09:30:16.938Z,15.30
2019-04-16T09:33:00.927Z,15.63
2019-04-16T09:35:31.679Z,16.03
2019-04-16T09:38:02.746Z,16.97
2019-04-16T09:40:49.807Z,16.20
2019-04-16T09:43:20.848Z,16.90
2019-04-16T09:45:50.327Z,18.00
2019-04-16T09:48:20.126Z,17.00
2019-04-16T09:50:49.785Z,15.73
2019-04-16T09:53:32.241Z,16.10
2019-04-16T09:55:51.212Z,17.17
2019-04-16T09:58:22.914Z,15.80
2019-04-16T10:00:59.675Z,15.83
2019-04-16T10:03:36.623Z,16.10
2019-04-16T10:06:06.132Z,17.07
2019-04-16T10:08:35.626Z,16.97
2019-04-16T10:11:06.241Z,16.13
2019-04-16T10:13:36.528Z,16.67
2019-04-16T10:16:05.972Z,16.70
2019-04-16T10:18:36.003Z,16.80
2019-04-16T10:21:05.800Z,16.70
2019-04-16T10:23:52.988Z,17.30
2019-04-16T10:26:22.488Z,16.93
2019-04-16T10:28:51.983Z,16.90
2019-04-16T10:31:26.107Z,17.30
2019-04-16T10:33:55.619Z,17.33
2019-04-16T10:36:25.096Z,16.43
2019-04-16T10:38:56.158Z,16.93
2019-04-16T10:41:29.949Z,15.27
2019-04-16T10:44:01.023Z,16.00
2019-04-16T10:46:48.470Z,17.50
2019-04-16T10:49:34.559Z,17.73
2019-04-16T10:52:22.410Z,15.03
2019-04-16T10:55:05.923Z,15.43
2019-04-16T10:57:55.402Z,15.80
2019-04-16T11:00:38.773Z,15.80
2019-04-16T11:03:18.528Z,15.27
2019-04-16T11:05:56.756Z,15.20
2019-04-16T11:08:23.480Z,16.60
2019-04-16T11:10:53.063Z,14.53
2019-04-16T11:13:26.835Z,14.67
2019-04-16T11:15:58.005Z,16.63
2019-04-16T11:18:27.508Z,17.37
2019-04-16T11:20:57.012Z,16.07
2019-04-16T11:23:26.539Z,15.87
2019-04-16T11:25:56.063Z,14.83
2019-04-16T11:28:25.571Z,16.07
2019-04-16T11:30:56.712Z,14.87
2019-04-16T11:33:27.678Z,15.40
2019-04-16T11:35:57.455Z,14.63
2019-04-16T11:38:26.958Z,13.60
2019-04-16T11:40:56.455Z,14.20
2019-04-16T11:43:26.072Z,13.73
2019-04-16T11:45:55.615Z,15.13
2019-04-16T11:48:25.154Z,15.67
2019-04-16T11:50:54.683Z,15.40
2019-04-16T11:53:24.210Z,15.23
2019-04-16T11:55:53.753Z,15.03
2019-04-16T11:58:39.993Z,16.50
2019-04-16T12:01:14.078Z,14.80
2019-04-16T12:03:57.217Z,15.30
2019-04-16T12:06:44.605Z,14.43
2019-04-16T12:09:18.540Z,14.70
2019-04-16T12:11:52.369Z,14.83
2019-04-16T12:14:32.310Z,13.90
2019-04-16T12:16:58.909Z,13.83
2019-04-16T12:19:30.012Z,14.30
2019-04-16T12:22:01.063Z,14.43
2019-04-16T12:24:35.465Z,13.70
2019-04-16T12:27:06.557Z,14.07
2019-04-16T12:29:46.904Z,14.93
2019-04-16T12:32:27.459Z,16.17
2019-04-16T12:35:02.037Z,13.70
2019-04-16T12:37:50.133Z,14.03
2019-04-16T12:40:27.155Z,14.47
2019-04-16T12:43:14.662Z,14.17
2019-04-16T12:45:43.014Z,15.60
2019-04-16T12:48:14.217Z,15.40
2019-04-16T12:50:45.306Z,15.43
2019-04-16T12:53:16.453Z,16.00
2019-04-16T12:55:53.427Z,15.83
2019-04-16T12:58:40.839Z,14.43
2019-04-16T13:01:19.793Z,14.37
2019-04-16T13:03:52.577Z,15.50
2019-04-16T13:06:27.178Z,14.13
2019-04-16T13:09:00.945Z,15.77
2019-04-16T13:11:40.783Z,16.50
2019-04-16T13:14:11.850Z,15.40
2019-04-16T13:16:57.801Z,13.40
2019-04-16T13:19:31.590Z,14.30
2019-04-16T13:22:01.059Z,15.90
2019-04-16T13:24:32.098Z,16.17
2019-04-16T13:27:03.175Z,13.50
2019-04-16T13:29:32.956Z,13.77
2019-04-16T13:32:02.431Z,14.97
2019-04-16T13:34:32.027Z,14.07
2019-04-16T13:37:01.510Z,14.33
2019-04-16T13:39:32.537Z,13.93
2019-04-16T13:42:01.985Z,13.43
2019-04-16T13:44:41.918Z,15.10
2019-04-16T13:47:11.421Z,15.00
2019-04-16T13:49:42.467Z,13.83
2019-04-16T13:52:11.935Z,14.43
2019-04-16T13:54:42.997Z,14.53
2019-04-16T13:57:14.036Z,14.23
2019-04-16T14:00:04.348Z,14.80
2019-04-16T14:02:35.957Z,13.53
2019-04-16T14:05:10.015Z,14.43
2019-04-16T14:07:37.454Z,14.67
2019-04-16T14:10:07.631Z,13.83
2019-04-16T14:12:42.224Z,12.50
2019-04-16T14:15:10.828Z,13.67
2019-04-16T14:17:52.544Z,14.10
2019-04-16T14:20:12.822Z,14.23
2019-04-16T14:22:42.701Z,15.10
2019-04-16T14:25:12.235Z,14.00
2019-04-16T14:27:41.820Z,12.27
2019-04-16T14:30:15.860Z,13.80
2019-04-16T14:32:54.021Z,12.13
2019-04-16T14:35:33.174Z,12.37
2019-04-16T14:37:56.618Z,13.50
2019-04-16T14:40:26.514Z,14.30
2019-04-16T14:42:57.724Z,12.90
2019-04-16T14:45:28.909Z,13.30
2019-04-16T14:47:58.395Z,14.53
2019-04-16T14:50:27.881Z,13.87
2019-04-16T14:52:57.635Z,14.10
2019-04-16T14:55:28.662Z,12.50
2019-04-16T14:58:17.721Z,13.70
2019-04-16T15:00:51.742Z,12.73
2019-04-16T15:03:43.022Z,12.70
2019-04-16T15:06:12.066Z,15.47
2019-04-16T15:09:01.121Z,13.10
2019-04-16T15:11:48.310Z,12.30
2019-04-16T15:14:19.517Z,12.63
2019-04-16T15:17:11.965Z,14.03
2019-04-16T15:19:53.297Z,13.80
2019-04-16T15:22:42.552Z,12.50
2019-04-16T15:25:16.828Z,12.70
2019-04-16T15:27:50.829Z,12.87
2019-04-16T15:30:22.127Z,14.00
2019-04-16T15:32:58.915Z,13.17
2019-04-16T15:35:32.951Z,13.47
2019-04-16T15:38:09.845Z,13.23
2019-04-16T15:40:41.010Z,14.83
2019-04-16T15:43:19.593Z,12.73
2019-04-16T15:46:25.060Z,13.50
2019-04-16T15:48:58.717Z,13.33
2019-04-16T15:51:48.062Z,12.47
2019-04-16T15:54:35.881Z,11.90
2019-04-16T15:57:23.243Z,13.07
2019-04-16T16:00:03.434Z,12.93
2019-04-16T16:02:50.579Z,12.10
2019-04-16T16:05:21.647Z,13.43
2019-04-16T16:08:05.161Z,12.07
2019-04-16T16:10:36.263Z,12.43
2019-04-16T16:13:05.895Z,12.63
2019-04-16T16:15:40.209Z,12.83
2019-04-16T16:18:07.004Z,11.30
2019-04-16T16:20:36.483Z,12.40
2019-04-16T16:23:06.122Z,12.50
2019-04-16T16:25:35.754Z,11.90
2019-04-16T16:28:06.828Z,15.53
2019-04-16T16:30:36.320Z,14.97
2019-04-16T16:33:05.811Z,14.67
2019-04-16T16:35:35.689Z,14.90
2019-04-16T16:38:05.194Z,29.40
2019-04-16T16:40:34.705Z,14.70
2019-04-16T16:43:07.226Z,14.30
2019-04-16T16:45:52.379Z,12.57
2019-04-16T16:48:22.952Z,14.40
2019-04-16T16:50:52.687Z,11.40
2019-04-16T16:53:23.767Z,12.37
2019-04-16T16:55:54.715Z,11.57
2019-04-16T16:58:25.899Z,11.80
2019-04-16T17:01:14.061Z,11.43
2019-04-16T17:03:45.404Z,10.70
2019-04-16T17:06:16.591Z,12.60
2019-04-16T17:08:46.298Z,11.80
2019-04-16T17:11:17.067Z,12.00
2019-04-16T17:13:47.037Z,11.87
2019-04-16T17:16:16.569Z,12.20
2019-04-16T17:18:46.050Z,11.70
2019-04-16T17:21:15.533Z,12.93
2019-04-16T17:23:45.036Z,12.40
2019-04-16T17:26:16.066Z,11.53
2019-04-16T17:28:45.721Z,12.47
2019-04-16T17:31:15.784Z,11.03
2019-04-16T17:33:45.207Z,11.20
2019-04-16T17:36:14.891Z,11.43
2019-04-16T17:38:44.412Z,11.83
2019-04-16T17:41:15.470Z,11.77
2019-04-16T17:43:59.670Z,10.83
2019-04-16T17:46:35.415Z,14.63
2019-04-16T17:49:06.529Z,14.27
2019-04-16T17:51:53.925Z,13.03
2019-04-16T17:54:36.940Z,11.27
2019-04-16T17:57:22.921Z,11.63
2019-04-16T18:00:00.496Z,12.60
2019-04-16T18:02:47.653Z,11.57
2019-04-16T18:05:24.705Z,11.47
2019-04-16T18:08:07.990Z,12.37
2019-04-16T18:10:44.955Z,11.33
2019-04-16T18:13:16.114Z,10.83
2019-04-16T18:15:47.172Z,12.03
2019-04-16T18:18:27.399Z,11.47
2019-04-16T18:21:04.368Z,11.60
2019-04-16T18:23:35.672Z,13.23
2019-04-16T18:26:24.625Z,13.70
2019-04-16T18:28:55.855Z,11.90
2019-04-16T18:31:27.526Z,11.50
2019-04-16T18:34:16.472Z,12.37
2019-04-16T18:36:59.311Z,11.63
2019-04-16T18:39:37.108Z,11.50
2019-04-16T18:42:12.790Z,10.83
2019-04-16T18:44:59.933Z,12.43
2019-04-16T18:47:34.177Z,11.67
2019-04-16T18:50:05.556Z,12.50
2019-04-16T18:52:36.598Z,14.10
2019-04-16T18:55:07.637Z,16.10
2019-04-16T18:57:38.416Z,12.93
2019-04-16T19:00:10.436Z,12.63
2019-04-16T19:02:42.155Z,13.57
2019-04-16T19:05:11.590Z,13.93
2019-04-16T19:07:41.067Z,13.87
2019-04-16T19:10:10.874Z,14.70
2019-04-16T19:12:40.355Z,13.60
2019-04-16T19:15:09.917Z,15.20
2019-04-16T19:17:39.444Z,13.60
2019-04-16T19:20:11.802Z,15.53
2019-04-16T19:22:42.959Z,14.90
2019-04-16T19:25:12.472Z,15.30
2019-04-16T19:27:41.898Z,14.63
2019-04-16T19:30:12.012Z,14.07
2019-04-16T19:32:41.519Z,12.33
2019-04-16T19:35:16.903Z,14.70
2019-04-16T19:37:42.219Z,12.30
2019-04-16T19:40:11.713Z,12.70
2019-04-16T19:42:41.492Z,12.73
2019-04-16T19:45:11.994Z,12.43
2019-04-16T19:47:42.862Z,12.67
2019-04-16T19:50:12.398Z,15.27
2019-04-16T19:52:45.521Z,14.97
2019-04-16T19:55:13.415Z,15.67
2019-04-16T19:57:42.967Z,15.27
2019-04-16T20:00:12.666Z,14.77
2019-04-16T20:02:42.576Z,14.50
2019-04-16T20:05:15.370Z,14.60
2019-04-16T20:07:44.625Z,14.73
2019-04-16T20:10:14.265Z,14.00
2019-04-16T20:12:43.748Z,13.80
2019-04-16T20:15:13.226Z,15.67
2019-04-16T20:17:42.737Z,15.90
2019-04-16T20:20:12.215Z,14.67
2019-04-16T20:22:41.925Z,15.77
2019-04-16T20:25:12.077Z,11.80
2019-04-16T20:27:41.484Z,13.43
2019-04-16T20:30:12.566Z,13.23
2019-04-16T20:32:42.544Z,11.90
2019-04-16T20:35:17.734Z,13.17
2019-04-16T20:37:43.583Z,15.70
2019-04-16T20:40:14.631Z,21.63
2019-04-16T20:42:44.474Z,15.40
2019-04-16T20:45:13.982Z,15.93
2019-04-16T20:47:43.870Z,15.40
2019-04-16T20:50:13.840Z,15.70
2019-04-16T20:52:43.382Z,14.43
2019-04-16T20:55:15.651Z,14.50
2019-04-16T20:57:44.077Z,16.43
2019-04-16T21:00:15.152Z,16.33
2019-04-16T21:02:44.622Z,19.47
2019-04-16T21:05:22.045Z,15.73
2019-04-16T21:07:47.157Z,14.80
2019-04-16T21:10:17.130Z,16.20
2019-04-16T21:12:46.752Z,13.67
2019-04-16T21:15:17.035Z,15.57
2019-04-16T21:17:46.538Z,17.30
2019-04-16T21:20:19.335Z,17.90
2019-04-16T21:22:47.683Z,17.00
2019-04-16T21:25:17.428Z,17.30
2019-04-16T21:27:54.532Z,16.97
2019-04-16T21:30:24.352Z,15.80
2019-04-16T21:33:14.180Z,14.90
2019-04-16T21:35:48.252Z,13.90
2019-04-16T21:38:19.338Z,14.77
2019-04-16T21:40:48.828Z,15.33
2019-04-16T21:43:18.333Z,25.50
2019-04-16T21:45:48.265Z,17.50
2019-04-16T21:48:18.469Z,14.20
2019-04-16T21:50:48.447Z,13.83
2019-04-16T21:53:18.248Z,14.37
2019-04-16T21:55:48.194Z,15.03
2019-04-16T21:58:18.341Z,13.57
2019-04-16T22:00:52.301Z,12.87
2019-04-16T22:03:25.716Z,12.57
2019-04-16T22:05:54.949Z,13.37
2019-04-16T22:08:29.432Z,14.43
2019-04-16T22:10:55.908Z,13.57
2019-04-16T22:13:25.454Z,12.80
2019-04-16T22:15:57.316Z,13.90
2019-04-16T22:18:25.716Z,14.10
2019-04-16T22:20:55.046Z,13.80
2019-04-16T22:23:24.381Z,13.93
2019-04-16T22:25:57.069Z,13.23
2019-04-16T22:28:24.927Z,13.50
2019-04-16T22:30:54.118Z,13.20
2019-04-16T22:33:23.322Z,13.20
2019-04-16T22:35:52.802Z,14.43
2019-04-16T22:38:22.279Z,13.70
2019-04-16T22:40:59.612Z,15.00
2019-04-16T22:43:39.632Z,13.07
2019-04-16T22:46:12.057Z,15.07
2019-04-16T22:48:43.115Z,14.07
2019-04-16T22:51:12.593Z,12.83
2019-04-16T22:53:42.097Z,13.17
2019-04-16T22:56:11.559Z,13.53
2019-04-16T22:58:50.746Z,12.30
2019-04-16T23:01:24.483Z,13.20
2019-04-16T23:03:54.541Z,13.53
2019-04-16T23:06:24.245Z,13.93
2019-04-16T23:08:53.799Z,13.90
2019-04-16T23:11:24.461Z,14.17
2019-04-16T23:13:54.273Z,13.70
2019-04-16T23:16:23.746Z,12.90
2019-04-16T23:18:53.379Z,13.10
2019-04-16T23:21:22.898Z,14.67
2019-04-16T23:23:52.571Z,14.30
2019-04-16T23:26:22.042Z,13.10
2019-04-16T23:28:51.559Z,13.30
2019-04-16T23:31:22.689Z,14.37
2019-04-16T23:33:52.427Z,16.23
2019-04-16T23:36:21.945Z,13.30
2019-04-16T23:38:51.892Z,13.10
2019-04-16T23:41:21.371Z,13.83
2019-04-16T23:43:53.602Z,13.40
2019-04-16T23:46:41.415Z,12.87
2019-04-16T23:49:28.852Z,13.40
2019-04-16T23:52:03.066Z,14.20
2019-04-16T23:54:48.868Z,13.30
2019-04-16T23:57:24.944Z,14.00
